Time;durP1;ratioP1;P1;durP2;ratioP2;P2;SDS_P1;SDS_P2;PMS_P1;PMS_P2;Temp;Humidity;BMP_temperature;BMP_pressure;BME280_temperature;BME280_humidity;BME280_pressure;Samples;Min_cycle;Max_cycle;Signal;HPM_P1;HPM_P2
2023/05/02 00:00:47;;;;;;;0.10;0.10;;;11.20;99.90;;;;;;5036076;28;20186;-82
2023/05/02 00:03:12;;;;;;;0.10;0.10;;;11.30;99.90;;;;;;5034496;28;20243;-82
2023/05/02 00:05:39;;;;;;;0.10;0.10;;;11.10;99.90;;;;;;5029527;28;20187;-82
2023/05/02 00:08:05;;;;;;;0.10;0.10;;;11.20;99.90;;;;;;5039446;28;20190;-81
2023/05/02 00:10:30;;;;;;;0.10;0.10;;;11.10;99.90;;;;;;5044928;28;20954;-82
2023/05/02 00:12:56;;;;;;;0.10;0.10;;;11.10;99.90;;;;;;5043245;28;20643;-84
2023/05/02 00:15:21;;;;;;;0.10;0.10;;;11.20;99.90;;;;;;5044007;28;20191;-83
2023/05/02 00:17:47;;;;;;;0.10;0.10;;;11.10;99.90;;;;;;5048616;28;20183;-83
2023/05/02 00:20:12;;;;;;;0.10;0.10;;;11.00;99.90;;;;;;5047114;28;20245;-82
2023/05/02 00:22:38;;;;;;;0.10;0.10;;;11.00;99.90;;;;;;5045775;28;20745;-80
2023/05/02 00:25:04;;;;;;;0.10;0.10;;;10.90;99.90;;;;;;5051926;28;20178;-82
2023/05/02 00:27:33;;;;;;;0.10;0.10;;;11.10;99.90;;;;;;5035716;28;20270;-82
2023/05/02 00:29:59;;;;;;;0.10;0.10;;;10.90;99.90;;;;;;5038472;28;20437;-82
2023/05/02 00:32:25;;;;;;;0.10;0.10;;;11.00;99.90;;;;;;5036060;28;20445;-81
2023/05/02 00:34:51;;;;;;;0.03;0.03;;;11.10;99.90;;;;;;5047149;28;20447;-82
2023/05/02 00:37:17;;;;;;;0.10;0.10;;;11.10;99.90;;;;;;5048641;28;20452;-83
2023/05/02 00:39:43;;;;;;;0.10;0.10;;;11.10;99.90;;;;;;5041037;28;20178;-82
2023/05/02 00:42:09;;;;;;;0.10;0.10;;;11.00;99.90;;;;;;5047309;28;20588;-82
2023/05/02 00:44:35;;;;;;;0.00;0.00;;;11.10;99.90;;;;;;5051319;28;20463;-82
2023/05/02 00:47:01;;;;;;;0.10;0.10;;;11.00;99.90;;;;;;5035272;28;20253;-82
2023/05/02 00:49:27;;;;;;;0.10;0.10;;;11.00;99.90;;;;;;5033490;28;20210;-80
2023/05/02 00:51:53;;;;;;;0.10;0.10;;;10.80;99.90;;;;;;5041360;28;20197;-82
2023/05/02 00:54:19;;;;;;;0.10;0.10;;;10.80;99.90;;;;;;5038219;28;20499;-80
2023/05/02 00:56:45;;;;;;;0.10;0.10;;;10.80;99.90;;;;;;5050211;28;20600;-83
2023/05/02 00:59:12;;;;;;;0.10;0.10;;;11.00;99.90;;;;;;5049067;28;20183;-82
2023/05/02 01:02:35;;;;;;;0.10;0.10;;;10.90;99.90;;;;;;5043236;28;21008;-83
2023/05/02 01:05:18;;;;;;;0.10;0.10;;;10.90;99.90;;;;;;4953602;28;20465;-83
2023/05/02 01:08:18;;;;;;;0.07;0.07;;;10.90;99.90;;;;;;4966630;28;20450;-83
2023/05/02 01:11:07;;;;;;;0.10;0.10;;;10.90;99.90;;;;;;5047299;28;20811;-82
2023/05/02 01:13:34;;;;;;;0.10;0.10;;;11.00;99.90;;;;;;5039458;28;20557;-83
2023/05/02 01:16:02;;;;;;;0.10;0.10;;;10.90;99.90;;;;;;5037040;28;20449;-83
2023/05/02 01:18:34;;;;;;;0.10;0.10;;;10.80;99.90;;;;;;5047614;28;20468;-83
2023/05/02 01:21:02;;;;;;;0.10;0.10;;;10.70;99.90;;;;;;5047977;28;20480;-81
2023/05/02 01:24:00;;;;;;;0.10;0.10;;;10.40;99.90;;;;;;5048969;28;20489;-81
2023/05/02 01:26:31;;;;;;;0.10;0.10;;;10.40;99.90;;;;;;5030782;28;20456;-80
2023/05/02 01:29:07;;;;;;;0.10;0.10;;;10.20;99.90;;;;;;5040945;28;20453;-83
2023/05/02 01:31:41;;;;;;;0.10;0.10;;;10.10;99.90;;;;;;5031905;28;20450;-80
2023/05/02 01:34:11;;;;;;;0.10;0.10;;;10.00;99.90;;;;;;5040111;28;20457;-80
2023/05/02 01:36:42;;;;;;;0.10;0.10;;;9.90;99.90;;;;;;5043153;28;20446;-81
2023/05/02 01:39:09;;;;;;;0.10;0.10;;;9.90;99.90;;;;;;5032023;28;20450;-81
2023/05/02 01:41:36;;;;;;;0.10;0.10;;;9.90;99.90;;;;;;5042407;28;20489;-83
2023/05/02 01:44:02;;;;;;;0.10;0.10;;;9.60;99.90;;;;;;5046667;28;20481;-82
2023/05/02 01:46:35;;;;;;;0.17;0.17;;;9.30;99.90;;;;;;5059225;28;20516;-82
2023/05/02 01:49:04;;;;;;;0.10;0.10;;;9.20;99.90;;;;;;5059799;28;20455;-83
2023/05/02 01:51:32;;;;;;;0.17;0.17;;;9.10;99.90;;;;;;5043253;28;20445;-83
2023/05/02 01:54:00;;;;;;;0.10;0.10;;;;;;;;;;5039688;28;20815;-81
2023/05/02 01:56:26;;;;;;;0.20;0.20;;;;;;;;;;5050420;28;20436;-82
2023/05/02 01:58:53;;;;;;;0.10;0.10;;;;;;;;;;5031022;28;20441;-81
2023/05/02 02:01:20;;;;;;;0.20;0.20;;;;;;;;;;5047977;28;20535;-83
2023/05/02 02:03:46;;;;;;;0.20;0.20;;;;;;;;;;5050482;28;20452;-83
2023/05/02 02:06:13;;;;;;;0.13;0.13;;;;;;;;;;5034294;28;20500;-81
2023/05/02 02:08:39;;;;;;;0.10;0.10;;;;;;;;;;5039109;28;20447;-83
2023/05/02 02:11:11;;;;;;;0.10;0.10;;;;;;;;;;5042570;28;20441;-81
2023/05/02 02:13:39;;;;;;;0.20;0.20;;;;;;;;;;5033549;28;20425;-82
2023/05/02 02:16:06;;;;;;;0.30;0.30;;;;;;;;;;5041808;28;20441;-81
2023/05/02 02:18:37;;;;;;;0.20;0.20;;;;;;;;;;5046791;28;20433;-81
2023/05/02 02:21:05;;;;;;;0.20;0.20;;;;;;;;;;5035155;28;20446;-81
2023/05/02 02:23:33;;;;;;;0.20;0.20;;;;;;;;;;5032962;28;20489;-80
2023/05/02 02:26:00;;;;;;;0.10;0.10;;;;;;;;;;5044431;28;20598;-82
2023/05/02 02:28:26;;;;;;;0.20;0.20;;;;;;;;;;5047662;28;20518;-80
2023/05/02 02:30:52;;;;;;;0.20;0.20;;;;;;;;;;5039031;28;20950;-81
2023/05/02 02:33:19;;;;;;;0.20;0.20;;;;;;;;;;5032851;28;20450;-82
2023/05/02 02:35:51;;;;;;;0.10;0.10;;;;;;;;;;5034824;28;20438;-81
2023/05/02 02:38:27;;;;;;;0.20;0.20;;;;;;;;;;5045671;28;20541;-82
2023/05/02 02:41:13;;;;;;;0.20;0.20;;;;;;;;;;5040240;28;20437;-82
2023/05/02 02:43:48;;;;;;;0.20;0.20;;;;;;;;;;5031544;28;20476;-81
2023/05/02 02:46:35;;;;;;;0.20;0.20;;;;;;;;;;5028469;28;20442;-82
2023/05/02 02:49:00;;;;;;;0.17;0.17;;;;;;;;;;5039892;28;20436;-81
2023/05/02 02:51:32;;;;;;;0.20;0.20;;;;;;;;;;5043007;28;20448;-81
2023/05/02 02:54:03;;;;;;;0.20;0.20;;;;;;;;;;5040060;28;20448;-82
2023/05/02 02:56:40;;;;;;;0.20;0.20;;;;;;;;;;5057126;28;20441;-81
2023/05/02 02:59:12;;;;;;;0.20;0.20;;;;;;;;;;5047523;28;21706;-83
2023/05/02 03:01:58;;;;;;;0.20;0.20;;;;;;;;;;5034530;28;20442;-82
2023/05/02 03:04:25;;;;;;;0.20;0.20;;;;;;;;;;5035126;28;20569;-83
2023/05/02 03:06:59;;;;;;;0.20;0.20;;;;;;;;;;5030514;28;20532;-82
2023/05/02 03:09:32;;;;;;;0.20;0.20;;;;;;;;;;5036543;28;20445;-82
2023/05/02 03:12:05;;;;;;;0.20;0.20;;;;;;;;;;5030871;28;20448;-82
2023/05/02 03:14:43;;;;;;;0.20;0.20;;;;;;;;;;5046905;28;20458;-81
2023/05/02 03:17:18;;;;;;;0.20;0.20;;;;;;;;;;5030527;28;20441;-83
2023/05/02 03:19:49;;;;;;;0.20;0.20;;;;;;;;;;5031709;28;20452;-82
2023/05/02 03:22:25;;;;;;;0.20;0.20;;;;;;;;;;5033478;28;20453;-83
2023/05/02 03:24:55;;;;;;;0.20;0.20;;;;;;;;;;5037917;28;21001;-82
2023/05/02 03:27:21;;;;;;;0.20;0.20;;;;;;;;;;5031127;28;20442;-82
2023/05/02 03:29:47;;;;;;;0.20;0.20;;;;;;;;;;5040122;28;20810;-82
2023/05/02 03:32:15;;;;;;;0.20;0.20;;;;;;;;;;5034407;28;20533;-83
2023/05/02 03:34:42;;;;;;;0.10;0.10;;;;;;;;;;5043433;28;20441;-82
2023/05/02 03:37:08;;;;;;;0.13;0.13;;;;;;;;;;5049656;28;20414;-81
2023/05/02 03:39:35;;;;;;;0.10;0.10;;;;;;;;;;5038049;28;20498;-83
2023/05/02 03:42:02;;;;;;;0.20;0.20;;;;;;;;;;5036710;28;20586;-82
2023/05/02 03:44:29;;;;;;;0.20;0.20;;;;;;;;;;5033861;28;20939;-83
2023/05/02 03:46:56;;;;;;;0.20;0.20;;;;;;;;;;5043917;28;20548;-83
2023/05/02 03:49:25;;;;;;;0.20;0.20;;;;;;;;;;5043625;28;20495;-83
2023/05/02 03:51:51;;;;;;;0.20;0.20;;;;;;;;;;5048800;28;20441;-83
2023/05/02 03:54:18;;;;;;;0.20;0.20;;;;;;;;;;5038458;28;20473;-82
2023/05/02 03:56:45;;;;;;;0.20;0.20;;;;;;;;;;5031973;28;20951;-83
2023/05/02 03:59:12;;;;;;;0.10;0.10;;;;;;;;;;5047761;28;20448;-82
2023/05/02 04:01:39;;;;;;;0.13;0.13;;;;;;;;;;5047442;28;20529;-83
2023/05/02 04:04:05;;;;;;;0.20;0.20;;;7.40;99.90;;;;;;5042012;28;20583;-82
2023/05/02 04:06:31;;;;;;;0.20;0.20;;;;;;;;;;5043775;28;20560;-82
2023/05/02 04:08:58;;;;;;;0.20;0.20;;;7.30;99.90;;;;;;5040802;28;20261;-82
2023/05/02 04:11:25;;;;;;;0.20;0.20;;;7.10;99.90;;;;;;5040509;28;20469;-82
2023/05/02 04:13:51;;;;;;;0.17;0.17;;;6.90;99.90;;;;;;5043084;28;20449;-82
2023/05/02 04:16:17;;;;;;;0.20;0.20;;;;;;;;;;5041621;28;20454;-83
2023/05/02 04:18:43;;;;;;;0.20;0.20;;;7.00;99.90;;;;;;5043361;28;20531;-82
2023/05/02 04:21:09;;;;;;;0.20;0.20;;;6.90;99.90;;;;;;5046322;28;20536;-81
2023/05/02 04:23:36;;;;;;;0.20;0.20;;;;;;;;;;5033860;28;20278;-82
2023/05/02 04:26:02;;;;;;;0.20;0.20;;;;;;;;;;5049440;28;20458;-83
2023/05/02 04:28:29;;;;;;;0.20;0.20;;;;;;;;;;5052109;28;20479;-82
2023/05/02 04:30:56;;;;;;;0.20;0.20;;;;;;;;;;5050011;28;20452;-82
2023/05/02 04:33:23;;;;;;;0.20;0.20;;;;;;;;;;5049167;28;20532;-82
2023/05/02 04:35:51;;;;;;;0.20;0.20;;;;;;;;;;5049287;28;20538;-82
2023/05/02 04:38:18;;;;;;;0.20;0.20;;;;;;;;;;5047732;28;20533;-83
2023/05/02 04:40:44;;;;;;;0.10;0.10;;;;;;;;;;5043928;28;20633;-82
2023/05/02 04:43:11;;;;;;;0.20;0.20;;;;;;;;;;5034768;28;20568;-82
2023/05/02 04:45:38;;;;;;;0.20;0.20;;;;;;;;;;5035673;28;20529;-82
2023/05/02 04:48:05;;;;;;;0.20;0.20;;;;;;;;;;5032384;28;20886;-83
2023/05/02 04:50:32;;;;;;;0.20;0.20;;;;;;;;;;5042803;28;20532;-82
2023/05/02 04:52:59;;;;;;;0.20;0.20;;;;;;;;;;5036720;28;20442;-82
2023/05/02 04:55:25;;;;;;;0.20;0.20;;;;;;;;;;5044666;28;20445;-82
2023/05/02 04:57:52;;;;;;;0.20;0.20;;;;;;;;;;5046253;28;20433;-82
2023/05/02 05:00:20;;;;;;;0.20;0.20;;;;;;;;;;5047563;28;20532;-82
2023/05/02 05:02:47;;;;;;;0.20;0.20;;;;;;;;;;5037198;28;20450;-82
2023/05/02 05:05:14;;;;;;;0.13;0.13;;;;;;;;;;5042695;28;20590;-83
2023/05/02 05:07:44;;;;;;;0.20;0.20;;;;;;;;;;5034785;28;20533;-83
2023/05/02 05:10:11;;;;;;;0.17;0.17;;;;;;;;;;5031141;28;20449;-88
2023/05/02 05:12:38;;;;;;;0.20;0.20;;;;;;;;;;5035145;28;20436;-83
2023/05/02 05:15:06;;;;;;;0.10;0.10;;;;;;;;;;5041956;28;20453;-83
2023/05/02 05:17:32;;;;;;;0.20;0.20;;;;;;;;;;5053028;28;20429;-83
2023/05/02 05:19:59;;;;;;;0.10;0.10;;;;;;;;;;5036253;28;20936;-83
2023/05/02 05:22:24;;;;;;;0.20;0.20;;;7.60;99.90;;;;;;5036396;28;20852;-83
2023/05/02 05:24:52;;;;;;;0.13;0.13;;;;;;;;;;5032538;28;21047;-83
2023/05/02 05:27:19;;;;;;;0.20;0.20;;;;;;;;;;5040446;28;20192;-84
2023/05/02 05:29:46;;;;;;;0.10;0.10;;;;;;;;;;5035382;28;20455;-84
2023/05/02 05:32:13;;;;;;;0.20;0.20;;;;;;;;;;5038941;28;20961;-85
2023/05/02 05:34:39;;;;;;;0.17;0.17;;;;;;;;;;5032120;28;20529;-84
2023/05/02 05:37:06;;;;;;;0.10;0.10;;;;;;;;;;5040924;28;20468;-84
2023/05/02 05:39:32;;;;;;;0.10;0.10;;;;;;;;;;5040430;28;20534;-83
2023/05/02 05:42:00;;;;;;;0.20;0.20;;;;;;;;;;5042790;28;21463;-82
2023/05/02 05:44:28;;;;;;;0.13;0.13;;;;;;;;;;5040093;28;20596;-83
2023/05/02 05:46:53;;;;;;;0.10;0.10;;;7.40;99.90;;;;;;5033227;28;20458;-82
2023/05/02 05:49:20;;;;;;;0.17;0.17;;;7.70;99.90;;;;;;5030823;28;20450;-83
2023/05/02 05:51:46;;;;;;;0.20;0.20;;;7.70;99.90;;;;;;5053068;28;20188;-82
2023/05/02 05:54:12;;;;;;;0.20;0.20;;;7.90;99.90;;;;;;5035873;28;20874;-85
2023/05/02 05:56:37;;;;;;;0.17;0.17;;;7.70;99.90;;;;;;5035249;28;20191;-84
2023/05/02 05:59:02;;;;;;;0.20;0.20;;;7.80;99.90;;;;;;5034379;28;20179;-86
2023/05/02 06:01:28;;;;;;;0.20;0.20;;;7.90;99.90;;;;;;5030223;28;20773;-83
2023/05/02 06:03:53;;;;;;;0.20;0.20;;;7.90;99.90;;;;;;5031624;28;20191;-81
2023/05/02 06:06:19;;;;;;;0.20;0.20;;;8.00;99.90;;;;;;5036873;28;20197;-83
2023/05/02 06:08:45;;;;;;;0.17;0.17;;;8.10;99.90;;;;;;5039254;28;20188;-84
2023/05/02 06:11:10;;;;;;;0.20;0.20;;;7.90;99.90;;;;;;5039543;28;20610;-82
2023/05/02 06:13:36;;;;;;;0.10;0.10;;;8.00;99.90;;;;;;5029724;28;20191;-83
2023/05/02 06:16:02;;;;;;;0.20;0.20;;;8.00;99.90;;;;;;5032521;28;20188;-83
2023/05/02 06:18:28;;;;;;;0.17;0.17;;;7.80;99.90;;;;;;5031306;28;20440;-83
2023/05/02 06:20:53;;;;;;;0.20;0.20;;;7.90;99.90;;;;;;5035190;28;20198;-84
2023/05/02 06:23:19;;;;;;;0.20;0.20;;;8.10;99.90;;;;;;5037687;28;20587;-82
2023/05/02 06:25:44;;;;;;;0.17;0.17;;;8.10;99.90;;;;;;5034276;28;20245;-83
2023/05/02 06:28:10;;;;;;;0.13;0.13;;;8.10;99.90;;;;;;5034689;28;20183;-83
2023/05/02 06:30:35;;;;;;;0.13;0.13;;;8.20;99.90;;;;;;5034642;28;20182;-83
2023/05/02 06:33:03;;;;;;;0.10;0.10;;;8.30;99.90;;;;;;5033634;28;20570;-83
2023/05/02 06:35:32;;;;;;;0.20;0.20;;;8.50;99.90;;;;;;5032924;28;20192;-83
2023/05/02 06:37:57;;;;;;;0.13;0.13;;;8.50;99.90;;;;;;5031936;28;20953;-81
2023/05/02 06:40:23;;;;;;;0.10;0.10;;;8.50;99.90;;;;;;5034360;28;20472;-84
2023/05/02 06:42:48;;;;;;;0.10;0.10;;;8.70;99.90;;;;;;5039316;28;20313;-83
2023/05/02 06:45:14;;;;;;;0.10;0.10;;;8.60;99.90;;;;;;5027026;28;20215;-84
2023/05/02 06:47:39;;;;;;;0.20;0.20;;;8.40;99.90;;;;;;5042517;28;20666;-82
2023/05/02 06:50:05;;;;;;;0.20;0.20;;;8.80;99.90;;;;;;5039407;28;20201;-82
2023/05/02 06:52:31;;;;;;;0.10;0.10;;;9.20;99.90;;;;;;5029233;28;20187;-83
2023/05/02 06:54:57;;;;;;;0.10;0.10;;;9.60;99.90;;;;;;5032485;28;20449;-82
2023/05/02 06:57:23;;;;;;;0.10;0.10;;;9.50;99.90;;;;;;5043211;28;20330;-83
2023/05/02 06:59:49;;;;;;;0.10;0.10;;;9.20;99.90;;;;;;5030803;28;20257;-83
2023/05/02 07:02:14;;;;;;;0.20;0.20;;;9.00;99.90;;;;;;5028687;28;20450;-82
2023/05/02 07:04:40;;;;;;;0.10;0.10;;;;;;;;;;5047513;28;20214;-82
2023/05/02 07:07:07;;;;;;;0.10;0.10;;;;;;;;;;5042802;28;20194;-83
2023/05/02 07:09:33;;;;;;;0.20;0.20;;;;;;;;;;5038587;28;20964;-84
2023/05/02 07:12:01;;;;;;;0.10;0.10;;;;;;;;;;5029264;28;20469;-82
2023/05/02 07:14:28;;;;;;;0.10;0.10;;;;;;;;;;5043021;28;20445;-83
2023/05/02 07:16:55;;;;;;;0.10;0.10;;;;;;;;;;5045772;28;20988;-84
2023/05/02 07:19:21;;;;;;;0.10;0.10;;;;;;;;;;5044675;28;20457;-83
2023/05/02 07:21:49;;;;;;;0.10;0.10;;;;;;;;;;5035784;28;20539;-81
2023/05/02 07:24:16;;;;;;;0.10;0.10;;;;;;;;;;5045510;28;20447;-81
2023/05/02 07:26:43;;;;;;;0.10;0.10;;;;;;;;;;5038015;28;20536;-81
2023/05/02 07:29:10;;;;;;;0.10;0.10;;;;;;;;;;5047053;28;20409;-80
2023/05/02 07:31:39;;;;;;;0.10;0.10;;;;;;;;;;5040613;28;20544;-81
2023/05/02 07:34:08;;;;;;;0.07;0.07;;;;;;;;;;5037761;28;20443;-80
2023/05/02 07:36:36;;;;;;;0.10;0.10;;;;;;;;;;5036776;28;20537;-80
2023/05/02 07:39:04;;;;;;;0.10;0.10;;;;;;;;;;5042025;28;20695;-81
2023/05/02 07:41:33;;;;;;;0.10;0.10;;;;;;;;;;5039933;28;20515;-80
2023/05/02 07:44:00;;;;;;;0.03;0.03;;;;;;;;;;5046819;28;20433;-79
2023/05/02 07:46:26;;;;;;;0.10;0.10;;;;;;;;;;5047055;28;20490;-81
2023/05/02 07:48:53;;;;;;;0.10;0.10;;;;;;;;;;5038844;28;20986;-78
2023/05/02 07:51:21;;;;;;;0.10;0.10;;;;;;;;;;5034002;28;20445;-81
2023/05/02 07:53:57;;;;;;;0.10;0.10;;;;;;;;;;5046550;28;20433;-81
2023/05/02 07:56:23;;;;;;;0.07;0.07;;;;;;;;;;5044946;28;20445;-81
2023/05/02 07:58:51;;;;;;;0.07;0.07;;;;;;;;;;5044965;28;20480;-80
2023/05/02 08:01:18;;;;;;;0.10;0.10;;;;;;;;;;5036581;28;20450;-80
2023/05/02 08:03:45;;;;;;;0.10;0.10;;;;;;;;;;5036198;28;21273;-80
2023/05/02 08:06:12;;;;;;;0.10;0.10;;;;;;;;;;5030992;28;21028;-81
2023/05/02 08:08:39;;;;;;;0.10;0.10;;;;;;;;;;5035115;28;20444;-80
2023/05/02 08:11:05;;;;;;;0.10;0.10;;;;;;;;;;5040604;28;20452;-80
2023/05/02 08:13:32;;;;;;;0.10;0.10;;;;;;;;;;5038932;28;20496;-80
2023/05/02 08:15:59;;;;;;;0.10;0.10;;;;;;;;;;5032557;28;21084;-80
2023/05/02 08:18:26;;;;;;;0.10;0.10;;;;;;;;;;5036705;28;20500;-80
2023/05/02 08:20:54;;;;;;;0.10;0.10;;;;;;;;;;5043199;28;20535;-79
2023/05/02 08:23:21;;;;;;;0.10;0.10;;;;;;;;;;5034928;28;20436;-79
2023/05/02 08:25:48;;;;;;;0.10;0.10;;;;;;;;;;5041906;28;20591;-79
2023/05/02 08:28:15;;;;;;;0.10;0.10;;;;;;;;;;5040174;28;20436;-78
2023/05/02 08:30:44;;;;;;;0.10;0.10;;;;;;;;;;5036818;28;20446;-79
2023/05/02 08:33:11;;;;;;;0.00;0.00;;;;;;;;;;5039142;28;20629;-79
2023/05/02 08:35:38;;;;;;;0.10;0.10;;;;;;;;;;5040480;28;20445;-79
2023/05/02 08:38:05;;;;;;;0.10;0.10;;;;;;;;;;5035446;28;20469;-78
2023/05/02 08:40:36;;;;;;;0.03;0.03;;;;;;;;;;5051177;28;20448;-79
2023/05/02 08:43:04;;;;;;;0.10;0.10;;;;;;;;;;5043230;28;20528;-79
2023/05/02 08:45:31;;;;;;;0.10;0.10;;;;;;;;;;5041171;28;20496;-78
2023/05/02 08:47:59;;;;;;;0.07;0.07;;;;;;;;;;5042560;28;20464;-79
2023/05/02 08:50:26;;;;;;;0.10;0.10;;;;;;;;;;5030427;28;20454;-79
2023/05/02 08:52:53;;;;;;;0.10;0.10;;;;;;;;;;5032214;28;20533;-79
2023/05/02 08:55:26;;;;;;;0.10;0.10;;;;;;;;;;5040863;28;21244;-79
2023/05/02 08:57:55;;;;;;;0.10;0.10;;;;;;;;;;5033243;28;20446;-78
2023/05/02 09:00:22;;;;;;;0.10;0.10;;;;;;;;;;5037241;28;20463;-80
2023/05/02 09:03:02;;;;;;;0.10;0.10;;;;;;;;;;5040942;28;20429;-79
2023/05/02 09:05:30;;;;;;;0.10;0.10;;;;;;;;;;5045809;28;21027;-79
2023/05/02 09:07:57;;;;;;;0.10;0.10;;;;;;;;;;5041169;28;20533;-79
2023/05/02 09:10:26;;;;;;;0.10;0.10;;;;;;;;;;5033914;28;20678;-79
2023/05/02 09:12:53;;;;;;;0.10;0.10;;;;;;;;;;5055024;28;20441;-79
2023/05/02 09:15:21;;;;;;;0.10;0.10;;;;;;;;;;5038462;28;20529;-79
2023/05/02 09:17:48;;;;;;;0.10;0.10;;;;;;;;;;5054335;28;20523;-79
2023/05/02 09:20:16;;;;;;;0.03;0.03;;;;;;;;;;5041164;28;20536;-79
2023/05/02 09:22:49;;;;;;;0.10;0.10;;;;;;;;;;5031737;28;20530;-79
2023/05/02 09:25:16;;;;;;;0.07;0.07;;;;;;;;;;5041366;28;20441;-79
2023/05/02 09:27:50;;;;;;;0.10;0.10;;;;;;;;;;5040260;28;20449;-79
2023/05/02 09:30:24;;;;;;;0.00;0.00;;;;;;;;;;5037429;28;20444;-77
2023/05/02 09:32:56;;;;;;;0.03;0.03;;;;;;;;;;5040958;28;20442;-79
2023/05/02 09:35:23;;;;;;;0.00;0.00;;;;;;;;;;5039108;28;20805;-79
2023/05/02 09:37:54;;;;;;;0.03;0.03;;;;;;;;;;5040537;28;20443;-79
2023/05/02 09:40:22;;;;;;;0.10;0.10;;;;;;;;;;5046048;28;20464;-79
2023/05/02 09:42:49;;;;;;;0.00;0.00;;;;;;;;;;5031737;28;20481;-79
2023/05/02 09:45:26;;;;;;;0.10;0.10;;;;;;;;;;5031570;28;20877;-79
2023/05/02 09:47:53;;;;;;;0.00;0.00;;;;;;;;;;5041157;28;20519;-79
2023/05/02 09:50:36;;;;;;;0.00;0.00;;;;;;;;;;5044991;28;21063;-80
2023/05/02 09:53:08;;;;;;;0.00;0.00;;;;;;;;;;5046360;28;20464;-80
2023/05/02 09:55:35;;;;;;;0.07;0.07;;;;;;;;;;5047812;28;20429;-79
2023/05/02 09:58:03;;;;;;;0.07;0.07;;;;;;;;;;5042084;28;20436;-79
2023/05/02 10:00:40;;;;;;;0.00;0.00;;;;;;;;;;5034731;28;20495;-80
2023/05/02 10:03:07;;;;;;;0.03;0.03;;;;;;;;;;5040734;28;20564;-79
2023/05/02 10:05:38;;;;;;;0.07;0.07;;;;;;;;;;5045370;28;20524;-78
2023/05/02 10:08:09;;;;;;;0.03;0.03;;;;;;;;;;5030945;28;20473;-78
2023/05/02 10:10:52;;;;;;;0.03;0.03;;;;;;;;;;5046706;28;21307;-79
2023/05/02 10:13:21;;;;;;;0.10;0.10;;;;;;;;;;5047760;28;20499;-79
2023/05/02 10:15:50;;;;;;;0.07;0.07;;;;;;;;;;5048652;28;20516;-79
2023/05/02 10:18:23;;;;;;;0.10;0.10;;;;;;;;;;5037131;28;20780;-81
2023/05/02 10:20:59;;;;;;;0.10;0.10;;;;;;;;;;5042434;28;20540;-81
2023/05/02 10:23:28;;;;;;;0.10;0.10;;;;;;;;;;5041868;28;20586;-81
2023/05/02 10:25:56;;;;;;;0.00;0.00;;;;;;;;;;5048014;28;20455;-81
2023/05/02 10:28:23;;;;;;;0.10;0.10;;;;;;;;;;5038191;28;20529;-78
2023/05/02 10:30:51;;;;;;;0.10;0.10;;;;;;;;;;5041323;28;20878;-82
2023/05/02 10:33:19;;;;;;;0.03;0.03;;;;;;;;;;5048410;28;20520;-82
2023/05/02 10:35:46;;;;;;;0.07;0.07;;;;;;;;;;5056401;28;20439;-80
2023/05/02 10:38:23;;;;;;;0.10;0.10;;;;;;;;;;5047795;28;20494;-81
2023/05/02 10:40:54;;;;;;;0.10;0.10;;;;;;;;;;5035179;28;20440;-82
2023/05/02 10:43:22;;;;;;;0.10;0.10;;;;;;;;;;5043855;28;20481;-83
2023/05/02 10:45:49;;;;;;;0.07;0.07;;;;;;;;;;5043560;28;20449;-82
2023/05/02 10:48:21;;;;;;;0.03;0.03;;;;;;;;;;5040659;28;20458;-82
2023/05/02 10:50:52;;;;;;;0.10;0.10;;;;;;;;;;5036216;28;20441;-83
2023/05/02 10:53:42;;;;;;;0.10;0.10;;;;;;;;;;5030048;28;20434;-80
2023/05/02 10:56:17;;;;;;;0.07;0.07;;;;;;;;;;5043909;28;20441;-80
2023/05/02 10:58:45;;;;;;;0.10;0.10;;;;;;;;;;5050798;28;20413;-80
2023/05/02 11:01:35;;;;;;;0.00;0.00;;;;;;;;;;5043260;28;20451;-80
2023/05/02 11:04:04;;;;;;;0.07;0.07;;;;;;;;;;5044434;28;20434;-80
2023/05/02 11:06:37;;;;;;;0.00;0.00;;;;;;;;;;5030768;28;20493;-80
2023/05/02 11:09:15;;;;;;;0.00;0.00;;;;;;;;;;5045189;28;20861;-80
2023/05/02 11:11:49;;;;;;;0.00;0.00;;;;;;;;;;5032127;28;20872;-81
2023/05/02 11:14:28;;;;;;;0.00;0.00;;;;;;;;;;5047186;28;20567;-80
2023/05/02 11:16:57;;;;;;;0.00;0.00;;;;;;;;;;5035542;28;20473;-80
2023/05/02 11:19:27;;;;;;;0.00;0.00;;;;;;;;;;5046220;28;20445;-81
2023/05/02 11:22:15;;;;;;;0.00;0.00;;;;;;;;;;5043078;28;20489;-81
2023/05/02 11:24:48;;;;;;;0.00;0.00;;;;;;;;;;5045739;28;20951;-83
2023/05/02 11:27:32;;;;;;;0.00;0.00;;;;;;;;;;5042219;28;20469;-80
2023/05/02 11:30:09;;;;;;;0.00;0.00;;;;;;;;;;5047356;28;20477;-82
2023/05/02 11:32:58;;;;;;;0.00;0.00;;;;;;;;;;5037714;28;21048;-81
2023/05/02 11:35:25;;;;;;;0.00;0.00;;;14.70;99.90;;;;;;5036844;28;20462;-79
2023/05/02 11:38:24;;;;;;;0.00;0.00;;;14.10;99.90;;;;;;5037856;28;20479;-80
2023/05/02 11:40:52;;;;;;;0.00;0.00;;;;;;;;;;4983338;28;21000;-79
2023/05/02 11:43:20;;;;;;;0.00;0.00;;;;;;;;;;5043043;28;20516;-80
2023/05/02 11:45:47;;;;;;;0.00;0.00;;;;;;;;;;5045372;28;20957;-80
2023/05/02 11:48:14;;;;;;;0.00;0.00;;;;;;;;;;5042094;28;20480;-81
2023/05/02 11:50:51;;;;;;;0.00;0.00;;;14.30;99.90;;;;;;5049910;28;20449;-82
2023/05/02 11:53:28;;;;;;;0.00;0.00;;;;;;;;;;5034786;28;20563;-80
2023/05/02 11:55:59;;;;;;;0.07;0.07;;;;;;;;;;5036126;28;20451;-81
2023/05/02 11:58:28;;;;;;;0.03;0.03;;;;;;;;;;5034172;28;20450;-80
2023/05/02 12:00:56;;;;;;;0.00;0.00;;;;;;;;;;5032703;28;20962;-81
2023/05/02 12:03:30;;;;;;;0.00;0.00;;;;;;;;;;5048994;28;20475;-80
2023/05/02 12:05:58;;;;;;;0.00;0.00;;;;;;;;;;5046077;28;20462;-80
2023/05/02 12:08:26;;;;;;;0.00;0.00;;;;;;;;;;5044060;28;20513;-80
2023/05/02 12:10:54;;;;;;;0.00;0.00;;;;;;;;;;5044227;28;20438;-80
2023/05/02 12:13:22;;;;;;;0.00;0.00;;;14.10;99.90;;;;;;5039475;28;20465;-80
2023/05/02 12:15:50;;;;;;;0.00;0.00;;;;;;;;;;5045960;28;20479;-80
2023/05/02 12:18:16;;;;;;;0.00;0.00;;;14.30;99.90;;;;;;5047297;28;20441;-80
2023/05/02 12:20:42;;;;;;;0.00;0.00;;;14.10;99.90;;;;;;5052950;28;20775;-80
2023/05/02 12:23:09;;;;;;;0.00;0.00;;;14.30;99.90;;;;;;5041106;28;20483;-81
2023/05/02 12:25:41;;;;;;;0.00;0.00;;;14.70;99.90;;;;;;5054421;28;20445;-79
2023/05/02 12:28:08;;;;;;;0.00;0.00;;;;;;;;;;5052041;28;21007;-80
2023/05/02 12:30:37;;;;;;;0.00;0.00;;;16.20;99.90;;;;;;5051646;28;21007;-83
2023/05/02 12:33:03;;;;;;;0.00;0.00;;;15.80;99.90;;;;;;5049891;28;20814;-80
2023/05/02 12:35:30;;;;;;;0.00;0.00;;;15.00;99.90;;;;;;5050775;28;20543;-80
2023/05/02 12:38:11;;;;;;;0.00;0.00;;;14.40;99.90;;;;;;5037677;28;20184;-80
2023/05/02 12:40:37;;;;;;;0.00;0.00;;;14.10;99.90;;;;;;5051026;28;20517;-80
2023/05/02 12:43:05;;;;;;;0.00;0.00;;;14.50;99.90;;;;;;5043818;28;20565;-80
2023/05/02 12:45:33;;;;;;;0.00;0.00;;;15.30;99.90;;;;;;5032856;28;20176;-79
2023/05/02 12:48:21;;;;;;;0.00;0.00;;;14.30;99.90;;;;;;5043703;28;20481;-80
2023/05/02 12:50:47;;;;;;;0.00;0.00;;;13.80;99.90;;;;;;5039856;28;20441;-81
2023/05/02 12:53:13;;;;;;;0.00;0.00;;;13.50;99.90;;;;;;5036973;28;20500;-79
2023/05/02 12:55:39;;;;;;;0.00;0.00;;;13.50;99.90;;;;;;5045537;28;20522;-79
2023/05/02 12:58:06;;;;;;;0.00;0.00;;;13.20;99.90;;;;;;5043766;28;20187;-80
2023/05/02 13:00:35;;;;;;;0.00;0.00;;;13.30;99.90;;;;;;5036126;28;20523;-80
2023/05/02 13:03:01;;;;;;;0.00;0.00;;;;;;;;;;5039543;28;20432;-80
2023/05/02 13:05:27;;;;;;;0.00;0.00;;;15.20;99.90;;;;;;5053117;28;20532;-80
2023/05/02 13:07:55;;;;;;;0.00;0.00;;;;;;;;;;5050398;28;20575;-83
2023/05/02 13:10:21;;;;;;;0.00;0.00;;;16.70;99.90;;;;;;5030291;28;20198;-81
2023/05/02 13:12:47;;;;;;;0.00;0.00;;;16.80;99.90;;;;;;5049748;28;20968;-81
2023/05/02 13:15:13;;;;;;;0.00;0.00;;;15.80;99.90;;;;;;5049568;28;20441;-80
2023/05/02 13:17:39;;;;;;;0.00;0.00;;;15.40;99.90;;;;;;5038697;28;20179;-80
2023/05/02 13:20:05;;;;;;;0.00;0.00;;;14.70;99.90;;;;;;5037881;28;20191;-80
2023/05/02 13:22:31;;;;;;;0.00;0.00;;;15.00;99.90;;;;;;5040126;28;20193;-80
2023/05/02 13:24:56;;;;;;;0.00;0.00;;;15.60;99.90;;;;;;5045101;28;20944;-81
2023/05/02 13:27:22;;;;;;;0.00;0.00;;;17.00;99.90;;;;;;5034909;28;20219;-82
2023/05/02 13:29:48;;;;;;;0.00;0.00;;;17.20;99.90;;;;;;5041140;28;20674;-81
2023/05/02 13:32:15;;;;;;;0.00;0.00;;;17.60;99.90;;;;;;5033305;28;20202;-81
2023/05/02 13:34:40;;;;;;;0.00;0.00;;;16.20;99.90;;;;;;5034340;28;20781;-79
2023/05/02 13:37:06;;;;;;;0.00;0.00;;;15.40;99.90;;;;;;5045225;28;20452;-80
2023/05/02 13:39:32;;;;;;;0.00;0.00;;;15.50;99.90;;;;;;5031226;28;20187;-79
2023/05/02 13:41:57;;;;;;;0.00;0.00;;;14.60;99.90;;;;;;5041092;28;20238;-80
2023/05/02 13:44:23;;;;;;;0.00;0.00;;;14.40;99.90;;;;;;5042844;28;20627;-80
2023/05/02 13:46:48;;;;;;;0.00;0.00;;;14.50;99.90;;;;;;5048204;28;20931;-82
2023/05/02 13:49:14;;;;;;;0.00;0.00;;;14.60;99.90;;;;;;5041881;28;20190;-80
2023/05/02 13:51:39;;;;;;;0.00;0.00;;;14.60;99.90;;;;;;5042960;28;20197;-82
2023/05/02 13:54:06;;;;;;;0.00;0.00;;;14.10;99.90;;;;;;5063995;28;20182;-81
2023/05/02 13:56:31;;;;;;;0.00;0.00;;;13.70;99.90;;;;;;5031973;28;20187;-81
2023/05/02 13:58:58;;;;;;;0.00;0.00;;;13.60;99.90;;;;;;5041082;28;20708;-80
2023/05/02 14:01:25;;;;;;;0.00;0.00;;;14.10;99.90;;;;;;5043510;28;20945;-81
2023/05/02 14:03:51;;;;;;;0.00;0.00;;;15.20;99.90;;;;;;5057171;28;20186;-81
2023/05/02 14:06:16;;;;;;;0.00;0.00;;;15.40;99.90;;;;;;5050680;28;21204;-82